createdAt,value
2022-09-17T00:02:02.918Z,9.43
2022-09-17T00:04:39.002Z,7.90
2022-09-17T00:07:21.011Z,5.30
2022-09-17T00:09:53.465Z,8.83
2022-09-17T00:12:25.228Z,12.40
2022-09-17T00:15:01.835Z,8.97
2022-09-17T00:17:40.315Z,8.53
2022-09-17T00:20:23.588Z,11.53
2022-09-17T00:22:55.517Z,6.60
2022-09-17T00:25:30.348Z,8.23
2022-09-17T00:28:03.705Z,7.33
2022-09-17T00:30:35.260Z,9.67
2022-09-17T00:33:07.788Z,13.40
2022-09-17T00:35:38.171Z,10.50
2022-09-17T00:38:08.886Z,8.27
2022-09-17T00:40:39.342Z,8.50
2022-09-17T00:43:14.362Z,11.53
2022-09-17T00:45:44.690Z,10.70
2022-09-17T00:48:25.058Z,13.07
2022-09-17T00:50:55.798Z,12.03
2022-09-17T00:53:25.656Z,10.47
2022-09-17T00:56:01.775Z,11.67
2022-09-17T00:58:40.479Z,9.83
2022-09-17T01:01:10.993Z,12.03
2022-09-17T01:04:04.705Z,17.30
2022-09-17T01:06:38.364Z,10.52
2022-09-17T01:09:24.074Z,12.23
2022-09-17T01:12:11.584Z,9.90
2022-09-17T01:14:56.743Z,10.70
2022-09-17T01:17:34.987Z,11.57
2022-09-17T01:20:36.998Z,13.73
2022-09-17T01:23:33.063Z,12.50
2022-09-17T01:26:21.120Z,13.23
2022-09-17T01:28:57.432Z,8.40
2022-09-17T01:31:38.984Z,17.30
2022-09-17T01:34:21.343Z,11.10
2022-09-17T01:37:05.840Z,16.77
2022-09-17T01:39:45.644Z,12.80
2022-09-17T01:42:26.829Z,11.37
2022-09-17T01:45:02.889Z,11.47
2022-09-17T01:47:39.708Z,14.90
2022-09-17T01:50:13.929Z,12.17
2022-09-17T01:52:50.625Z,9.50
2022-09-17T01:55:23.382Z,8.67
2022-09-17T01:57:58.958Z,9.67
2022-09-17T02:00:29.206Z,8.50
2022-09-17T02:03:05.105Z,13.27
2022-09-17T02:05:41.326Z,8.63
2022-09-17T02:08:14.344Z,12.23
2022-09-17T02:10:49.536Z,6.77
2022-09-17T02:13:24.734Z,18.97
2022-09-17T02:16:02.528Z,13.33
2022-09-17T02:18:42.381Z,15.70
2022-09-17T02:21:19.299Z,6.80
2022-09-17T02:23:55.779Z,14.47
2022-09-17T02:26:26.463Z,13.23
2022-09-17T02:29:01.265Z,13.57
2022-09-17T02:31:31.292Z,20.03
2022-09-17T02:34:06.806Z,11.87
2022-09-17T02:36:37.108Z,14.43
2022-09-17T02:39:07.687Z,14.23
2022-09-17T02:41:47.693Z,15.57
2022-09-17T02:44:29.549Z,12.00
2022-09-17T02:47:22.671Z,13.17
2022-09-17T02:50:21.180Z,18.73
2022-09-17T02:53:03.620Z,11.93
2022-09-17T02:55:43.519Z,11.63
2022-09-17T02:58:21.713Z,13.00
2022-09-17T03:00:52.011Z,17.27
2022-09-17T03:03:26.562Z,13.70
2022-09-17T03:05:59.831Z,14.83
2022-09-17T03:08:32.756Z,25.50
2022-09-17T03:11:04.806Z,17.13
2022-09-17T03:13:35.127Z,16.53
2022-09-17T03:16:05.810Z,16.93
2022-09-17T03:18:35.676Z,17.13
2022-09-17T03:21:09.708Z,9.20
2022-09-17T03:23:39.911Z,15.50
2022-09-17T03:26:10.029Z,15.60
2022-09-17T03:28:39.780Z,15.90
2022-09-17T03:31:09.846Z,14.60
2022-09-17T03:33:39.876Z,11.27
2022-09-17T03:36:12.237Z,15.57
2022-09-17T03:38:42.352Z,14.97
2022-09-17T03:41:12.227Z,19.17
2022-09-17T03:43:42.503Z,25.10
2022-09-17T03:46:12.693Z,16.23
2022-09-17T03:48:42.511Z,11.80
2022-09-17T03:51:15.024Z,23.30
2022-09-17T03:53:45.077Z,11.20
2022-09-17T03:56:14.906Z,12.20
2022-09-17T03:58:44.757Z,11.93
2022-09-17T04:01:15.047Z,8.73
2022-09-17T04:03:45.992Z,11.10
2022-09-17T04:06:18.565Z,7.73
2022-09-17T04:08:48.290Z,13.30
2022-09-17T04:11:18.384Z,10.70
2022-09-17T04:13:48.183Z,11.50
2022-09-17T04:16:18.353Z,15.43
2022-09-17T04:18:48.572Z,12.87
2022-09-17T04:21:20.994Z,11.80
2022-09-17T04:23:51.149Z,9.43
2022-09-17T04:26:21.159Z,16.10
2022-09-17T04:28:50.982Z,7.83
2022-09-17T04:31:22.702Z,12.33
2022-09-17T04:33:52.509Z,12.53
2022-09-17T04:36:25.120Z,20.40
2022-09-17T04:38:54.842Z,8.20
2022-09-17T04:41:24.990Z,15.27
2022-09-17T04:43:54.919Z,14.53
2022-09-17T04:46:24.711Z,11.53
2022-09-17T04:48:54.782Z,10.03
2022-09-17T04:51:30.071Z,13.83
2022-09-17T04:54:00.177Z,12.50
2022-09-17T04:56:30.015Z,14.57
2022-09-17T04:58:59.762Z,12.63
2022-09-17T05:01:29.871Z,12.93
2022-09-17T05:03:59.702Z,12.10
2022-09-17T05:06:32.214Z,9.90
2022-09-17T05:09:02.880Z,20.27
2022-09-17T05:11:32.721Z,11.83
2022-09-17T05:14:02.713Z,21.27
2022-09-17T05:16:33.170Z,15.37
2022-09-17T05:19:03.924Z,11.33
2022-09-17T05:21:36.978Z,14.17
2022-09-17T05:24:07.060Z,15.47
2022-09-17T05:26:37.328Z,13.43
2022-09-17T05:29:07.481Z,17.03
2022-09-17T05:31:37.342Z,12.60
2022-09-17T05:34:07.883Z,12.17
2022-09-17T05:36:40.333Z,14.37
2022-09-17T05:39:10.557Z,5.80
2022-09-17T05:41:40.275Z,12.50
2022-09-17T05:44:09.977Z,16.80
2022-09-17T05:46:40.154Z,9.80
2022-09-17T05:49:09.966Z,15.40
2022-09-17T05:51:42.308Z,8.30
2022-09-17T05:54:12.471Z,10.90
2022-09-17T05:56:42.614Z,13.07
2022-09-17T05:59:12.713Z,9.77
2022-09-17T06:01:42.817Z,11.10
2022-09-17T06:04:13.233Z,18.87
2022-09-17T06:06:46.265Z,10.67
2022-09-17T06:09:16.460Z,13.97
2022-09-17T06:11:46.579Z,14.40
2022-09-17T06:14:17.058Z,11.93
2022-09-17T06:16:47.431Z,12.73
2022-09-17T06:19:17.361Z,16.37
2022-09-17T06:21:50.532Z,15.13
2022-09-17T06:24:20.653Z,18.03
2022-09-17T06:26:50.708Z,22.37
2022-09-17T06:29:21.011Z,22.17
2022-09-17T06:31:50.936Z,18.23
2022-09-17T06:34:21.083Z,22.10
2022-09-17T06:36:54.143Z,21.10
2022-09-17T06:39:24.416Z,25.37
2022-09-17T06:41:54.454Z,19.23
2022-09-17T06:44:24.185Z,26.97
2022-09-17T06:46:59.564Z,21.97
2022-09-17T06:49:31.341Z,24.40
2022-09-17T06:52:04.199Z,28.97
2022-09-17T06:54:34.362Z,26.27
2022-09-17T06:57:04.282Z,24.33
2022-09-17T06:59:34.114Z,24.43
2022-09-17T07:02:04.233Z,24.90
2022-09-17T07:04:33.952Z,24.70
2022-09-17T07:07:06.707Z,30.90
2022-09-17T07:09:36.760Z,28.60
2022-09-17T07:12:10.590Z,30.80
2022-09-17T07:14:40.630Z,20.87
2022-09-17T07:17:10.635Z,25.73
2022-09-17T07:19:40.401Z,23.40
2022-09-17T07:22:14.045Z,17.73
2022-09-17T07:24:43.794Z,25.20
2022-09-17T07:27:14.091Z,22.77
2022-09-17T07:29:43.947Z,26.70
2022-09-17T07:32:14.086Z,22.30
2022-09-17T07:34:44.321Z,21.50
2022-09-17T07:37:16.641Z,33.00
2022-09-17T07:39:47.383Z,19.13
2022-09-17T07:42:17.552Z,17.37
2022-09-17T07:44:59.925Z,21.50
2022-09-17T07:47:32.986Z,23.00
2022-09-17T07:50:03.449Z,20.60
2022-09-17T07:52:41.780Z,21.63
2022-09-17T07:55:38.564Z,25.77
2022-09-17T07:58:14.234Z,19.30
2022-09-17T08:00:45.449Z,23.77
2022-09-17T08:03:18.539Z,25.17
2022-09-17T08:05:48.969Z,20.30
2022-09-17T08:08:21.654Z,14.73
2022-09-17T08:10:51.892Z,25.50
2022-09-17T08:13:23.498Z,23.10
2022-09-17T08:15:54.447Z,20.33
2022-09-17T08:18:25.146Z,20.20
2022-09-17T08:20:58.903Z,16.33
2022-09-17T08:23:33.065Z,20.07
2022-09-17T08:26:04.263Z,17.13
2022-09-17T08:28:34.544Z,18.53
2022-09-17T08:31:12.725Z,17.30
2022-09-17T08:34:02.640Z,20.60
2022-09-17T08:36:32.926Z,17.87
2022-09-17T08:39:06.372Z,21.13
2022-09-17T08:41:53.962Z,19.43
2022-09-17T08:44:36.844Z,12.63
2022-09-17T08:47:18.454Z,21.60
2022-09-17T08:49:53.904Z,11.10
2022-09-17T08:52:51.034Z,16.60
2022-09-17T08:55:34.981Z,12.47
2022-09-17T08:58:24.307Z,12.30
2022-09-17T09:00:58.837Z,14.83
2022-09-17T09:03:39.393Z,23.20
2022-09-17T09:06:11.047Z,16.03
2022-09-17T09:08:45.674Z,11.07
2022-09-17T09:11:21.522Z,13.30
2022-09-17T09:13:56.246Z,17.17
2022-09-17T09:16:28.897Z,15.07
2022-09-17T09:19:13.162Z,27.17
2022-09-17T09:21:50.858Z,13.80
2022-09-17T09:24:26.618Z,24.00
2022-09-17T09:27:06.540Z,17.17
2022-09-17T09:29:46.411Z,15.00
2022-09-17T09:32:27.412Z,14.33
2022-09-17T09:34:59.045Z,19.37
2022-09-17T09:37:33.085Z,13.77
2022-09-17T09:40:10.305Z,14.67
2022-09-17T09:42:42.782Z,17.07
2022-09-17T09:45:18.634Z,15.13
2022-09-17T09:47:59.497Z,22.50
2022-09-17T09:51:05.115Z,13.30
2022-09-17T09:53:44.938Z,17.23
2022-09-17T09:56:35.363Z,16.53
2022-09-17T09:59:09.948Z,14.20
2022-09-17T10:01:45.106Z,11.57
2022-09-17T10:04:21.855Z,15.27
2022-09-17T10:06:54.991Z,14.50
2022-09-17T10:09:25.031Z,19.73
2022-09-17T10:12:18.176Z,16.37
2022-09-17T10:14:51.047Z,17.60
2022-09-17T10:17:24.671Z,14.50
2022-09-17T10:20:20.574Z,14.37
2022-09-17T10:22:52.882Z,15.07
2022-09-17T10:25:32.399Z,12.75
2022-09-17T10:28:06.342Z,12.83
2022-09-17T10:30:38.895Z,14.60
2022-09-17T10:33:20.908Z,8.63
2022-09-17T10:36:06.281Z,19.30
2022-09-17T10:38:39.259Z,6.95
2022-09-17T10:41:14.560Z,9.85
2022-09-17T10:43:46.042Z,11.73
2022-09-17T10:46:27.344Z,10.43
2022-09-17T10:49:43.706Z,11.90
2022-09-17T10:52:42.659Z,14.88
2022-09-17T10:55:27.736Z,10.88
2022-09-17T10:59:25.297Z,14.77
2022-09-17T11:02:26.257Z,13.80
2022-09-17T11:17:46.384Z,13.27
2022-09-17T11:20:33.023Z,15.00
2022-09-17T11:23:21.681Z,10.27
2022-09-17T11:26:00.906Z,10.05
2022-09-17T11:28:56.071Z,14.33
2022-09-17T11:31:37.255Z,10.17
2022-09-17T11:34:35.063Z,9.48
2022-09-17T11:37:14.392Z,14.27
2022-09-17T11:39:50.091Z,8.50
2022-09-17T11:42:23.993Z,9.43
2022-09-17T11:44:57.763Z,11.10
2022-09-17T11:47:33.913Z,6.22
2022-09-17T11:50:12.856Z,8.90
2022-09-17T11:53:00.515Z,8.02
2022-09-17T11:55:38.376Z,12.23
2022-09-17T11:58:15.234Z,13.73
2022-09-17T12:00:52.536Z,7.40
2022-09-17T12:03:31.268Z,12.75
2022-09-17T12:06:08.820Z,4.75
2022-09-17T12:08:49.497Z,3.40
2022-09-17T12:15:20.526Z,2.83
2022-09-17T12:18:14.345Z,9.80
2022-09-17T12:20:49.470Z,8.27
2022-09-17T12:23:30.129Z,11.05
2022-09-17T12:26:10.738Z,8.82
2022-09-17T12:28:48.724Z,8.20
2022-09-17T12:31:26.934Z,9.32
2022-09-17T12:34:03.714Z,6.57
2022-09-17T12:36:48.590Z,9.65
2022-09-17T12:39:41.785Z,7.88
2022-09-17T12:42:27.562Z,4.40
2022-09-17T12:45:20.870Z,5.07
2022-09-17T12:48:16.171Z,8.15
2022-09-17T12:51:01.848Z,6.50
2022-09-17T12:53:36.246Z,7.45
2022-09-17T12:56:18.448Z,5.90
2022-09-17T12:59:10.774Z,5.75
2022-09-17T13:01:48.871Z,6.85
2022-09-17T13:05:00.469Z,9.45
2022-09-17T13:07:56.216Z,5.97
2022-09-17T13:11:07.278Z,7.72
2022-09-17T13:13:46.535Z,9.50
2022-09-17T13:16:25.415Z,6.65
2022-09-17T13:19:16.031Z,7.10
2022-09-17T13:21:54.663Z,9.85
2022-09-17T13:25:04.212Z,5.30
2022-09-17T13:27:37.646Z,7.15
2022-09-17T13:30:10.929Z,3.63
2022-09-17T13:33:07.056Z,3.92
2022-09-17T13:35:52.978Z,7.13
2022-09-17T13:38:24.878Z,3.50
2022-09-17T13:41:15.687Z,5.47
2022-09-17T13:43:49.517Z,6.88
2022-09-17T13:46:26.669Z,8.02
2022-09-17T13:49:02.775Z,8.75
2022-09-17T13:51:48.543Z,5.40
2022-09-17T13:54:20.887Z,5.50
2022-09-17T13:57:07.161Z,6.18
2022-09-17T13:59:41.027Z,6.45
2022-09-17T14:02:36.813Z,3.97
2022-09-17T14:05:37.286Z,4.88
2022-09-17T14:08:38.594Z,6.93
2022-09-17T14:11:40.643Z,14.18
2022-09-17T14:14:40.997Z,7.85
2022-09-17T14:17:12.106Z,13.05
2022-09-17T14:19:51.744Z,6.05
2022-09-17T14:22:28.125Z,12.43
2022-09-17T14:25:01.579Z,4.10
2022-09-17T14:27:44.766Z,31.73
2022-09-17T14:30:18.502Z,8.98
2022-09-17T14:32:56.081Z,6.20
2022-09-17T14:35:35.380Z,7.38
2022-09-17T14:41:27.201Z,8.57
2022-09-17T14:44:09.527Z,8.77
2022-09-17T14:46:48.935Z,6.68
2022-09-17T14:49:24.402Z,8.95
2022-09-17T14:51:59.399Z,10.30
2022-09-17T14:54:35.758Z,7.65
2022-09-17T14:57:26.806Z,11.27
2022-09-17T15:00:11.008Z,6.75
2022-09-17T15:02:45.123Z,8.13
2022-09-17T15:05:27.543Z,6.60
2022-09-17T15:08:17.615Z,2.47
2022-09-17T15:10:58.353Z,5.45
2022-09-17T15:14:20.539Z,3.05
2022-09-17T15:19:05.724Z,4.18
2022-09-17T15:25:26.456Z,7.97
2022-09-17T15:28:16.039Z,3.80
2022-09-17T15:31:00.339Z,2.60
2022-09-17T15:33:35.384Z,2.20
2022-09-17T15:37:05.700Z,4.75
2022-09-17T15:39:43.622Z,1.55
2022-09-17T15:42:33.302Z,3.17
2022-09-17T15:46:19.173Z,2.35
2022-09-17T15:49:20.103Z,3.60
2022-09-17T15:51:57.564Z,1.27
2022-09-17T15:54:48.581Z,2.35
2022-09-17T15:58:05.616Z,1.67
2022-09-17T16:09:25.763Z,1.50
2022-09-17T16:26:54.012Z,5.75
2022-09-17T16:30:23.053Z,2.80
2022-09-17T16:34:34.169Z,2.55
2022-09-17T16:37:24.311Z,2.30
2022-09-17T16:43:45.586Z,3.80
2022-09-17T16:47:21.446Z,5.77
2022-09-17T18:19:56.550Z,3.93
2022-09-17T18:22:45.007Z,4.70
2022-09-17T18:28:45.413Z,4.73
2022-09-17T18:31:23.374Z,6.83
2022-09-17T18:33:59.655Z,2.10
2022-09-17T18:36:34.539Z,5.83
2022-09-17T18:39:44.901Z,6.97
2022-09-17T18:42:07.323Z,6.40
2022-09-17T18:44:37.994Z,6.10
2022-09-17T18:47:10.871Z,6.23
2022-09-17T18:49:41.771Z,5.87
2022-09-17T18:52:15.594Z,12.47
2022-09-17T18:54:47.091Z,4.40
2022-09-17T18:57:17.284Z,3.37
2022-09-17T18:59:53.640Z,4.50
2022-09-17T19:02:25.107Z,3.37
2022-09-17T19:04:56.726Z,4.50
2022-09-17T19:07:32.519Z,2.80
2022-09-17T19:10:04.172Z,7.33
2022-09-17T19:12:38.395Z,5.57
2022-09-17T19:15:11.920Z,3.17
2022-09-17T19:17:43.440Z,3.97
2022-09-17T19:20:26.957Z,4.70
2022-09-17T19:23:05.479Z,3.77
2022-09-17T19:25:43.229Z,4.37
2022-09-17T19:28:15.431Z,4.73
2022-09-17T19:30:47.974Z,3.03
2022-09-17T19:33:21.850Z,4.13
2022-09-17T19:35:54.034Z,3.60
2022-09-17T19:38:28.575Z,2.30
2022-09-17T19:41:00.603Z,5.37
2022-09-17T19:43:32.057Z,5.20
2022-09-17T19:46:05.947Z,5.43
2022-09-17T19:48:37.188Z,4.80
2022-09-17T19:51:08.093Z,6.80
2022-09-17T19:53:42.187Z,5.03
2022-09-17T19:56:15.331Z,4.03
2022-09-17T19:58:46.192Z,4.70
2022-09-17T20:01:17.362Z,2.97
2022-09-17T20:03:48.398Z,2.43
2022-09-17T20:06:20.993Z,4.10
2022-09-17T20:09:10.731Z,3.50
2022-09-17T20:11:42.482Z,3.23
2022-09-17T20:14:14.092Z,6.33
2022-09-17T20:16:45.197Z,4.63
2022-09-17T20:19:18.400Z,4.03
2022-09-17T20:21:48.923Z,2.57
2022-09-17T20:24:22.538Z,3.17
2022-09-17T20:26:52.800Z,5.23
2022-09-17T20:29:23.221Z,6.60
2022-09-17T20:31:53.783Z,5.30
2022-09-17T20:34:23.944Z,4.33
2022-09-17T20:37:11.822Z,6.60
2022-09-17T20:39:46.108Z,4.83
2022-09-17T20:42:16.617Z,11.90
2022-09-17T20:44:46.777Z,8.03
2022-09-17T20:47:17.304Z,5.47
2022-09-17T20:49:47.565Z,6.17
2022-09-17T20:52:21.018Z,6.97
2022-09-17T20:54:54.534Z,8.97
2022-09-17T20:57:25.427Z,7.40
2022-09-17T21:00:00.494Z,11.20
2022-09-17T21:02:30.978Z,5.53
2022-09-17T21:05:01.439Z,7.10
2022-09-17T21:07:33.218Z,7.87
2022-09-17T21:10:06.303Z,6.73
2022-09-17T21:12:36.486Z,7.80
2022-09-17T21:15:07.844Z,10.40
2022-09-17T21:17:45.616Z,7.47
2022-09-17T21:21:18.647Z,8.13
2022-09-17T21:23:48.555Z,8.20
2022-09-17T21:26:23.300Z,9.77
2022-09-17T21:28:55.010Z,9.93
2022-09-17T21:31:32.003Z,8.70
2022-09-17T21:34:04.798Z,9.03
2022-09-17T21:36:36.922Z,6.60
2022-09-17T21:39:08.773Z,8.40
2022-09-17T21:41:42.940Z,7.97
2022-09-17T21:44:14.589Z,8.50
2022-09-17T21:46:45.525Z,8.33
2022-09-17T21:49:17.448Z,11.53
2022-09-17T21:51:48.491Z,9.13
2022-09-17T21:54:19.620Z,5.77
2022-09-17T21:56:53.005Z,8.97
2022-09-17T21:59:24.227Z,9.13
2022-09-17T22:01:54.624Z,7.43
2022-09-17T22:04:25.900Z,8.83
2022-09-17T22:06:56.520Z,4.37
2022-09-17T22:09:30.343Z,7.07
2022-09-17T22:12:06.488Z,8.23
2022-09-17T22:14:36.552Z,3.53
2022-09-17T22:17:07.177Z,7.43
2022-09-17T22:19:37.290Z,6.20
2022-09-17T22:22:07.784Z,6.57
2022-09-17T22:25:19.697Z,7.23
2022-09-17T22:28:28.409Z,9.40
2022-09-17T22:30:58.686Z,6.83
2022-09-17T22:33:29.473Z,5.33
2022-09-17T22:36:04.984Z,8.40
2022-09-17T22:38:36.197Z,6.00
2022-09-17T22:41:08.513Z,6.87
2022-09-17T22:43:41.822Z,9.43
2022-09-17T22:46:15.568Z,10.07
2022-09-17T22:48:46.194Z,7.13
2022-09-17T22:51:17.138Z,9.83
2022-09-17T22:53:47.590Z,5.17
2022-09-17T22:56:19.302Z,5.30
2022-09-17T23:02:07.807Z,6.43
2022-09-17T23:04:43.755Z,7.00
2022-09-17T23:07:18.719Z,6.33
2022-09-17T23:09:56.417Z,9.73
2022-09-17T23:12:34.727Z,9.77
2022-09-17T23:15:20.140Z,8.43
2022-09-17T23:18:09.886Z,7.37
2022-09-17T23:21:02.123Z,9.87
2022-09-17T23:24:05.027Z,8.87
2022-09-17T23:26:59.532Z,8.37
2022-09-17T23:29:41.948Z,11.47
2022-09-17T23:32:20.239Z,7.20
2022-09-17T23:35:10.630Z,9.47
2022-09-17T23:38:10.861Z,7.83
2022-09-17T23:40:55.698Z,9.27
2022-09-17T23:43:35.516Z,7.07
2022-09-17T23:46:25.318Z,6.30
2022-09-17T23:49:12.170Z,6.73
2022-09-17T23:51:53.229Z,4.80
2022-09-17T23:54:29.094Z,6.40
2022-09-17T23:57:06.213Z,5.70
2022-09-17T23:59:40.703Z,6.67
